EHWO/WOE METAR and TAF weather

Enter ICAO airport designator
Station Type Date Time Source
EHWO METAR 2021/05/12 02:25 UTC NOAA

EHWO 120225Z AUTO 23004KT 9999 BKN160 09/08 Q1010 BLU


Station Type Date Time Source
EHWO Decoded METAR 2021/05/12 02:25 UTC NOAA

Woensdrecht, Netherlands (EHWO) 51-27N 004-20E 17M
May 11, 2021 - 10:25 PM EDT / 2021.05.12 0225 UTC
Wind: from the SW (230 degrees) at 5 MPH (4 KT):0
Visibility: greater than 7 mile(s):0
Sky conditions: mostly cloudy
Temperature: 48 F (9 C)
Dew Point: 46 F (8 C)
Relative Humidity: 93%
Pressure (altimeter): 29.83 in. Hg (1010 hPa)
ob: EHWO 120225Z AUTO 23004KT 9999 BKN160 09/08 Q1010 BLU
cycle: 2

Station Type Date Time Source
EHWO TAF 2021/05/11 09:06 UTC NOAA

TAF EHWO 110844Z 1109/1121 VRB04KT CAVOK
TEMPO 1110/1117 4000 SHRA SCT022CB BKN025 PROB30 1112/1117 VRB08G18KT TSRAGR FEW008 SCT012 SCT020CB

Example: see airport list